Time;durP1;ratioP1;P1;durP2;ratioP2;P2;SDS_P1;SDS_P2;PMS_P1;PMS_P2;Temp;Humidity;BMP_temperature;BMP_pressure;BME280_temperature;BME280_humidity;BME280_pressure;Samples;Min_cycle;Max_cycle;Signal;HPM_P1;HPM_P2
2021/01/16 00:00:25;;;;;;;36.67;29.20;;;0.80;99.90;;;;;;5100648;28;20460;-77
2021/01/16 00:02:51;;;;;;;37.97;29.97;;;0.70;99.90;;;;;;5092486;28;20552;-76
2021/01/16 00:05:19;;;;;;;40.83;32.00;;;0.70;99.90;;;;;;5094467;28;20808;-77
2021/01/16 00:07:48;;;;;;;37.20;30.73;;;0.80;99.90;;;;;;5100968;28;20460;-79
2021/01/16 00:10:16;;;;;;;40.50;30.40;;;0.80;99.90;;;;;;5102596;28;20455;-77
2021/01/16 00:12:49;;;;;;;38.53;31.13;;;0.90;99.90;;;;;;5103784;28;20826;-75
2021/01/16 00:15:16;;;;;;;34.50;29.27;;;0.90;99.90;;;;;;5099384;28;20979;-78
2021/01/16 00:17:43;;;;;;;34.70;29.33;;;0.90;99.90;;;;;;5101789;28;20460;-75
2021/01/16 00:20:10;;;;;;;40.30;31.37;;;0.90;99.90;;;;;;5102907;28;20458;-78
2021/01/16 00:22:48;;;;;;;38.50;31.47;;;0.90;99.90;;;;;;5101667;28;20538;-77
2021/01/16 00:25:14;;;;;;;38.00;30.00;;;0.80;99.90;;;;;;5106438;28;20457;-75
2021/01/16 00:27:41;;;;;;;38.73;30.83;;;0.70;99.90;;;;;;5100869;28;20461;-78
2021/01/16 00:30:09;;;;;;;40.47;32.00;;;0.70;99.90;;;;;;5101280;27;20491;-78
2021/01/16 00:32:35;;;;;;;40.97;30.20;;;0.70;99.90;;;;;;5108484;27;20512;-76
2021/01/16 00:35:06;;;;;;;36.20;31.03;;;0.80;99.90;;;;;;5099278;28;20825;-79
2021/01/16 00:37:32;;;;;;;39.23;30.23;;;0.80;99.90;;;;;;5103798;28;20866;-77
2021/01/16 00:40:01;;;;;;;36.60;30.43;;;0.80;99.90;;;;;;5104302;28;20471;-78
2021/01/16 00:42:27;;;;;;;35.27;31.40;;;0.80;99.90;;;;;;5099154;28;20460;-78
2021/01/16 00:44:54;;;;;;;38.83;30.37;;;0.80;99.90;;;;;;5098510;28;20462;-76
2021/01/16 00:47:20;;;;;;;36.10;29.63;;;0.70;99.90;;;;;;5099072;28;20491;-77
2021/01/16 00:49:47;;;;;;;39.20;31.40;;;0.80;99.90;;;;;;5101232;28;20855;-74
2021/01/16 00:52:14;;;;;;;31.90;28.40;;;0.70;99.90;;;;;;5098147;27;20512;-76
2021/01/16 00:54:40;;;;;;;37.13;30.77;;;0.70;99.90;;;;;;5102819;27;20455;-76
2021/01/16 00:57:10;;;;;;;39.20;30.90;;;0.80;99.90;;;;;;5102331;28;20464;-77
2021/01/16 00:59:36;;;;;;;40.40;30.30;;;0.70;99.90;;;;;;5104126;27;20864;-74
2021/01/16 01:02:02;;;;;;;36.80;30.10;;;0.70;99.90;;;;;;5101093;28;20469;-77
2021/01/16 01:04:28;;;;;;;43.20;31.07;;;0.80;99.90;;;;;;5106054;28;20460;-74
2021/01/16 01:06:54;;;;;;;39.27;29.50;;;0.70;99.90;;;;;;5095649;28;20469;-76
2021/01/16 01:09:21;;;;;;;46.13;31.80;;;0.70;99.90;;;;;;5100326;28;20464;-79
2021/01/16 01:11:49;;;;;;;38.23;28.97;;;0.70;99.90;;;;;;5099786;28;20485;-76
2021/01/16 01:14:16;;;;;;;37.43;29.70;;;0.70;99.90;;;;;;5102057;28;20468;-76
2021/01/16 01:16:42;;;;;;;36.73;30.73;;;0.70;99.90;;;;;;5098511;28;20465;-77
2021/01/16 01:19:09;;;;;;;38.07;31.70;;;0.80;99.90;;;;;;5104485;28;20970;-77
2021/01/16 01:21:35;;;;;;;36.30;30.17;;;0.90;99.90;;;;;;5095831;28;20465;-78
2021/01/16 01:24:01;;;;;;;37.60;29.60;;;0.90;99.90;;;;;;5103710;28;20468;-76
2021/01/16 01:26:28;;;;;;;34.97;30.47;;;0.80;99.90;;;;;;5100736;28;20481;-73
2021/01/16 01:28:55;;;;;;;35.43;29.17;;;0.80;99.90;;;;;;5105202;28;20492;-75
2021/01/16 01:31:22;;;;;;;39.77;31.20;;;0.80;99.90;;;;;;5107592;27;20495;-74
2021/01/16 01:33:49;;;;;;;37.33;29.43;;;0.70;99.90;;;;;;5104806;28;20455;-75
2021/01/16 01:36:15;;;;;;;38.73;29.00;;;0.70;99.90;;;;;;5098593;28;20518;-78
2021/01/16 01:38:41;;;;;;;42.57;32.43;;;0.80;99.90;;;;;;5104156;28;20805;-76
2021/01/16 01:41:07;;;;;;;35.80;28.93;;;0.80;99.90;;;;;;5104872;28;20517;-74
2021/01/16 01:43:34;;;;;;;39.07;29.90;;;0.80;99.90;;;;;;5102484;28;20866;-75
2021/01/16 01:46:00;;;;;;;39.60;29.60;;;0.80;99.90;;;;;;5098669;28;20465;-75
2021/01/16 01:48:28;;;;;;;38.50;29.67;;;0.80;99.90;;;;;;5102117;28;20522;-75
2021/01/16 01:50:57;;;;;;;36.70;30.40;;;0.90;99.90;;;;;;5102272;28;20492;-77
2021/01/16 01:53:24;;;;;;;32.17;28.57;;;1.00;99.90;;;;;;5100325;28;21000;-75
2021/01/16 01:55:55;;;;;;;35.37;27.93;;;1.00;99.90;;;;;;5101927;28;22396;-77
2021/01/16 01:58:24;;;;;;;39.30;30.50;;;1.00;99.90;;;;;;5095454;27;20452;-79
2021/01/16 02:00:52;;;;;;;34.93;28.10;;;0.90;99.90;;;;;;5099539;27;20489;-78
2021/01/16 02:03:20;;;;;;;35.10;28.83;;;0.90;99.90;;;;;;5098750;28;20465;-78
2021/01/16 02:05:47;;;;;;;35.63;29.43;;;1.00;99.90;;;;;;5100163;28;20519;-77
2021/01/16 02:08:14;;;;;;;34.17;28.90;;;1.00;99.90;;;;;;5101717;28;20477;-74
2021/01/16 02:10:41;;;;;;;36.60;29.70;;;1.00;99.90;;;;;;5100035;27;20958;-79
2021/01/16 02:13:08;;;;;;;34.57;29.57;;;0.90;99.90;;;;;;5098440;28;20971;-77
2021/01/16 02:15:41;;;;;;;42.63;29.47;;;1.00;99.90;;;;;;5099934;28;20469;-78
2021/01/16 02:18:16;;;;;;;38.33;29.80;;;1.00;99.90;;;;;;5099051;28;20818;-77
2021/01/16 02:20:46;;;;;;;31.37;28.07;;;1.10;99.90;;;;;;5100163;28;20453;-75
2021/01/16 02:23:32;;;;;;;35.40;27.70;;;1.10;99.90;;;;;;5095621;28;21088;-78
2021/01/16 02:26:23;;;;;;;35.33;28.03;;;1.10;99.90;;;;;;5106023;28;20900;-77
2021/01/16 02:28:55;;;;;;;35.80;28.07;;;1.10;99.90;;;;;;5098371;28;20477;-78
2021/01/16 02:31:23;;;;;;;43.87;30.57;;;1.10;99.90;;;;;;5101647;28;20497;-74
2021/01/16 02:33:51;;;;;;;35.77;26.20;;;1.10;99.90;;;;;;5093277;28;20987;-74
2021/01/16 02:36:27;;;;;;;36.53;28.40;;;1.10;99.90;;;;;;5101214;27;20460;-80
2021/01/16 02:39:04;;;;;;;34.47;28.23;;;1.10;99.90;;;;;;5101059;28;21027;-77
2021/01/16 02:41:38;;;;;;;36.67;28.17;;;1.10;99.90;;;;;;5094471;28;20469;-76
2021/01/16 02:44:17;;;;;;;33.53;28.37;;;1.10;99.90;;;;;;5096583;28;20540;-75
2021/01/16 02:46:49;;;;;;;42.57;28.47;;;1.00;99.90;;;;;;5108658;27;20565;-78
2021/01/16 02:49:36;;;;;;;38.60;29.77;;;0.90;99.90;;;;;;5101632;28;20467;-77
2021/01/16 02:52:05;;;;;;;34.23;29.17;;;0.90;99.90;;;;;;5097434;28;21016;-75
2021/01/16 02:54:35;;;;;;;35.30;28.87;;;0.80;99.90;;;;;;5099451;28;20873;-78
2021/01/16 02:57:03;;;;;;;41.57;30.50;;;0.70;99.90;;;;;;5101950;28;20493;-78
2021/01/16 02:59:31;;;;;;;41.90;28.07;;;0.70;99.90;;;;;;5095991;28;20510;-76
2021/01/16 03:02:00;;;;;;;36.97;28.57;;;0.80;99.90;;;;;;5093727;28;20771;-78
2021/01/16 03:04:26;;;;;;;45.23;28.50;;;0.90;99.90;;;;;;5104999;28;20850;-79
2021/01/16 03:06:54;;;;;;;35.60;29.30;;;0.90;99.90;;;;;;5099903;28;20465;-75
2021/01/16 03:09:23;;;;;;;32.47;27.70;;;0.90;99.90;;;;;;5096086;28;20456;-77
2021/01/16 03:11:50;;;;;;;34.90;28.03;;;0.90;99.90;;;;;;5100044;28;20844;-76
2021/01/16 03:14:23;;;;;;;32.63;27.20;;;0.90;99.90;;;;;;5100017;28;20523;-79
2021/01/16 03:17:07;;;;;;;33.87;29.60;;;0.90;99.90;;;;;;5104327;28;20966;-77
2021/01/16 03:19:35;;;;;;;39.03;29.50;;;0.80;99.90;;;;;;5102556;28;20465;-77
2021/01/16 03:22:07;;;;;;;35.73;29.83;;;0.80;99.90;;;;;;5102609;28;20465;-78
2021/01/16 03:24:34;;;;;;;39.43;30.33;;;0.90;99.90;;;;;;5101851;28;20489;-75
2021/01/16 03:27:00;;;;;;;37.50;29.70;;;1.00;99.90;;;;;;5099330;28;20970;-74
2021/01/16 03:29:26;;;;;;;35.03;28.70;;;1.00;99.90;;;;;;5100885;28;20492;-77
2021/01/16 03:31:52;;;;;;;35.63;28.67;;;1.00;99.90;;;;;;5101085;28;20490;-77
2021/01/16 03:34:19;;;;;;;39.37;28.00;;;1.00;99.90;;;;;;5105446;28;20950;-76
2021/01/16 03:36:45;;;;;;;40.50;29.43;;;1.00;99.90;;;;;;5098958;28;20529;-79
2021/01/16 03:39:13;;;;;;;36.40;29.37;;;1.00;99.90;;;;;;5096044;28;20469;-77
2021/01/16 03:41:39;;;;;;;32.63;27.93;;;1.00;99.90;;;;;;5103052;28;20529;-79
2021/01/16 03:44:06;;;;;;;33.20;29.33;;;1.00;99.90;;;;;;5107346;28;20461;-77
2021/01/16 03:46:32;;;;;;;34.73;28.10;;;1.10;99.90;;;;;;5104117;28;20481;-75
2021/01/16 03:48:59;;;;;;;35.53;29.03;;;1.00;99.90;;;;;;5099553;28;20465;-77
2021/01/16 03:51:27;;;;;;;38.53;29.77;;;1.10;99.90;;;;;;5103382;28;20493;-79
2021/01/16 03:53:54;;;;;;;32.00;27.90;;;1.00;99.90;;;;;;5101149;28;20461;-78
2021/01/16 03:56:21;;;;;;;35.63;29.13;;;0.90;99.90;;;;;;5107889;27;20541;-78
2021/01/16 03:58:47;;;;;;;35.03;28.57;;;0.90;99.90;;;;;;5101573;28;20694;-77
2021/01/16 04:01:13;;;;;;;34.80;27.53;;;1.00;99.90;;;;;;5097895;28;20457;-78
2021/01/16 04:03:40;;;;;;;38.07;28.10;;;1.00;99.90;;;;;;5101262;28;20552;-77
2021/01/16 04:06:07;;;;;;;33.40;27.50;;;1.00;99.90;;;;;;5103808;28;20463;-75
2021/01/16 04:08:34;;;;;;;45.13;30.33;;;1.00;99.90;;;;;;5099733;28;20460;-78
2021/01/16 04:11:01;;;;;;;38.50;28.60;;;1.10;99.90;;;;;;5106772;28;20460;-76
2021/01/16 04:13:27;;;;;;;40.23;29.67;;;1.10;99.90;;;;;;5100499;28;20461;-77
2021/01/16 04:15:55;;;;;;;40.53;29.87;;;0.90;99.90;;;;;;5104514;27;20456;-74
2021/01/16 04:18:23;;;;;;;33.50;26.90;;;1.00;99.90;;;;;;5099918;28;20468;-77
2021/01/16 04:20:49;;;;;;;36.90;27.53;;;1.00;99.90;;;;;;5103743;28;20494;-77
2021/01/16 04:23:16;;;;;;;33.97;28.73;;;1.00;99.90;;;;;;5106833;28;20467;-76
2021/01/16 04:25:44;;;;;;;39.30;28.87;;;1.00;99.90;;;;;;5102707;28;20479;-73
2021/01/16 04:28:10;;;;;;;34.30;29.13;;;0.90;99.90;;;;;;5100473;28;20461;-75
2021/01/16 04:30:37;;;;;;;38.43;30.60;;;0.80;99.90;;;;;;5106908;28;20453;-80
2021/01/16 04:33:04;;;;;;;32.33;27.97;;;0.80;99.90;;;;;;5104450;28;20556;-77
2021/01/16 04:35:30;;;;;;;41.13;29.30;;;0.80;99.90;;;;;;5104528;28;20816;-79
2021/01/16 04:37:56;;;;;;;37.30;29.17;;;0.80;99.90;;;;;;5115241;27;20468;-76
2021/01/16 04:40:23;;;;;;;37.47;28.40;;;0.80;99.90;;;;;;5106150;28;20976;-77
2021/01/16 04:42:52;;;;;;;35.33;28.77;;;0.90;99.90;;;;;;5103755;28;20461;-78
2021/01/16 04:45:19;;;;;;;33.90;28.23;;;0.90;99.90;;;;;;5097430;28;20467;-79
2021/01/16 04:47:48;;;;;;;40.67;29.20;;;0.80;99.90;;;;;;5098982;28;20487;-77
2021/01/16 04:50:16;;;;;;;34.13;28.50;;;0.70;99.90;;;;;;5095572;28;20458;-78
2021/01/16 04:52:44;;;;;;;37.57;29.40;;;0.70;99.90;;;;;;5105305;28;20493;-77
2021/01/16 04:55:11;;;;;;;36.13;30.87;;;0.80;99.90;;;;;;5102907;28;21279;-79
2021/01/16 04:57:39;;;;;;;39.47;30.13;;;0.80;99.90;;;;;;5108543;28;20844;-76
2021/01/16 05:00:09;;;;;;;34.60;28.80;;;0.80;99.90;;;;;;5101612;28;20457;-78
2021/01/16 05:02:39;;;;;;;41.90;28.40;;;0.80;99.90;;;;;;5097581;28;20462;-76
2021/01/16 05:05:09;;;;;;;38.80;31.60;;;0.80;99.90;;;;;;5093537;28;20457;-76
2021/01/16 05:07:36;;;;;;;37.63;31.03;;;0.80;99.90;;;;;;5094243;28;20464;-75
2021/01/16 05:10:05;;;;;;;40.93;31.23;;;0.70;99.90;;;;;;5107033;28;21037;-75
2021/01/16 05:12:57;;;;;;;40.20;28.97;;;0.80;99.90;;;;;;5099023;28;20490;-77
2021/01/16 05:15:29;;;;;;;39.67;30.40;;;0.80;99.90;;;;;;5101636;28;20465;-80
2021/01/16 05:17:59;;;;;;;34.60;30.67;;;0.80;99.90;;;;;;5100568;28;20458;-79
2021/01/16 05:20:26;;;;;;;37.53;29.17;;;0.90;99.90;;;;;;5100787;28;20460;-75
2021/01/16 05:23:11;;;;;;;39.10;30.60;;;1.00;99.90;;;;;;5106679;28;20883;-79
2021/01/16 05:25:43;;;;;;;34.30;29.87;;;1.00;99.90;;;;;;5102746;28;20475;-75
2021/01/16 05:28:12;;;;;;;37.43;28.80;;;0.90;99.90;;;;;;5104046;28;20513;-75
2021/01/16 05:30:51;;;;;;;37.63;31.30;;;0.90;99.90;;;;;;5099849;28;20966;-76
2021/01/16 05:33:19;;;;;;;45.10;33.23;;;0.90;99.90;;;;;;5101714;28;20875;-75
2021/01/16 05:35:48;;;;;;;40.30;31.97;;;1.00;99.90;;;;;;5102525;28;20472;-77
2021/01/16 05:38:16;;;;;;;35.63;30.17;;;1.00;99.90;;;;;;5102420;27;20887;-80
2021/01/16 05:40:43;;;;;;;38.60;30.90;;;1.10;99.90;;;;;;5105334;28;20514;-76
2021/01/16 05:43:10;;;;;;;35.33;29.13;;;1.10;99.90;;;;;;5103568;28;20460;-75
2021/01/16 05:45:37;;;;;;;32.20;27.80;;;1.10;99.90;;;;;;5102677;28;20460;-76
2021/01/16 05:48:06;;;;;;;37.83;31.90;;;0.90;99.90;;;;;;5104840;27;20480;-73
2021/01/16 05:50:39;;;;;;;36.53;30.20;;;0.90;99.90;;;;;;5097850;28;20465;-76
2021/01/16 05:53:06;;;;;;;39.40;30.50;;;1.00;99.90;;;;;;5104133;28;20522;-77
2021/01/16 05:55:33;;;;;;;39.87;30.07;;;1.00;99.90;;;;;;5105596;28;20513;-74
2021/01/16 05:58:09;;;;;;;41.20;31.47;;;0.90;99.90;;;;;;5094141;28;20468;-76
2021/01/16 06:00:38;;;;;;;36.20;28.80;;;0.90;99.90;;;;;;5095367;28;20454;-73
2021/01/16 06:03:07;;;;;;;35.63;28.07;;;1.00;99.90;;;;;;5100553;28;20457;-79
2021/01/16 06:05:35;;;;;;;33.47;27.87;;;1.10;99.90;;;;;;5100314;28;20469;-75
2021/01/16 06:08:02;;;;;;;31.23;27.70;;;1.20;99.90;;;;;;5104135;28;20460;-77
2021/01/16 06:10:32;;;;;;;33.87;26.40;;;1.10;99.90;;;;;;5103147;28;20503;-75
2021/01/16 06:13:12;;;;;;;34.60;28.53;;;1.10;99.90;;;;;;5100842;28;20492;-78
2021/01/16 06:15:43;;;;;;;45.17;29.57;;;1.10;99.90;;;;;;5105874;28;20485;-75
2021/01/16 06:18:17;;;;;;;32.90;27.57;;;1.10;99.90;;;;;;5103348;28;20530;-77
2021/01/16 06:20:48;;;;;;;42.33;31.93;;;1.20;99.90;;;;;;5101622;28;20471;-78
2021/01/16 06:23:17;;;;;;;43.50;31.30;;;1.10;99.90;;;;;;5103458;28;20462;-80
2021/01/16 06:25:48;;;;;;;37.60;30.20;;;1.10;99.90;;;;;;5104511;28;20457;-74
2021/01/16 06:28:17;;;;;;;43.00;32.20;;;1.10;99.90;;;;;;5104841;28;20484;-76
2021/01/16 06:30:46;;;;;;;42.93;29.13;;;1.10;99.90;;;;;;5101640;28;20490;-78
2021/01/16 06:33:23;;;;;;;41.37;30.23;;;1.10;99.90;;;;;;5094963;28;20496;-78
2021/01/16 06:35:57;;;;;;;41.73;30.60;;;1.10;99.90;;;;;;5092806;28;20521;-76
2021/01/16 06:38:27;;;;;;;40.50;31.17;;;1.10;99.90;;;;;;5104761;27;20523;-77
2021/01/16 06:40:54;;;;;;;41.57;28.80;;;1.10;99.90;;;;;;5098939;28;20468;-76
2021/01/16 06:43:23;;;;;;;38.33;29.20;;;1.10;99.90;;;;;;5108600;28;20887;-76
2021/01/16 06:45:52;;;;;;;33.17;27.47;;;1.10;99.90;;;;;;5096615;28;20451;-74
2021/01/16 06:48:23;;;;;;;35.87;28.03;;;1.10;99.90;;;;;;5097599;28;20489;-76
2021/01/16 06:50:52;;;;;;;39.43;29.23;;;1.20;99.90;;;;;;5103872;28;20469;-75
2021/01/16 06:53:29;;;;;;;33.70;27.83;;;1.20;99.90;;;;;;5102547;28;20596;-77
2021/01/16 06:56:07;;;;;;;32.27;28.27;;;1.10;99.90;;;;;;5100814;28;20464;-76
2021/01/16 06:58:42;;;;;;;34.87;26.90;;;1.10;99.90;;;;;;5104053;28;20948;-75
2021/01/16 07:01:12;;;;;;;36.53;29.93;;;1.10;99.90;;;;;;5094685;28;20475;-73
2021/01/16 07:03:46;;;;;;;34.00;27.20;;;1.00;99.90;;;;;;5096485;28;20461;-76
2021/01/16 07:06:13;;;;;;;36.83;27.47;;;1.00;99.90;;;;;;5100399;28;20970;-79
2021/01/16 07:08:42;;;;;;;32.87;29.23;;;1.10;99.90;;;;;;5099593;28;20487;-75
2021/01/16 07:11:11;;;;;;;33.53;28.33;;;1.10;99.90;;;;;;5102723;28;20520;-76
2021/01/16 07:13:42;;;;;;;34.97;28.20;;;1.10;99.90;;;;;;5103369;28;20460;-77
2021/01/16 07:16:10;;;;;;;32.83;27.93;;;1.10;99.90;;;;;;5104088;28;20459;-77
2021/01/16 07:18:41;;;;;;;40.20;29.10;;;1.10;99.90;;;;;;5103593;28;20459;-75
2021/01/16 07:21:11;;;;;;;34.03;28.57;;;1.00;99.90;;;;;;5104141;28;20468;-78
2021/01/16 07:23:38;;;;;;;30.40;27.20;;;1.00;99.90;;;;;;5107174;28;20823;-78
2021/01/16 07:26:05;;;;;;;35.30;29.83;;;0.90;99.90;;;;;;5099378;28;20872;-77
2021/01/16 07:28:33;;;;;;;39.13;32.50;;;0.90;99.90;;;;;;5106913;28;20464;-76
2021/01/16 07:31:00;;;;;;;37.50;30.40;;;0.90;99.90;;;;;;5104103;28;20552;-75
2021/01/16 07:33:29;;;;;;;36.60;30.90;;;0.90;99.90;;;;;;5106540;28;20492;-79
2021/01/16 07:35:58;;;;;;;35.33;29.43;;;1.00;99.90;;;;;;5100270;28;20838;-73
2021/01/16 07:38:27;;;;;;;44.83;28.70;;;1.00;99.90;;;;;;5103623;28;20480;-75
2021/01/16 07:40:56;;;;;;;39.10;29.10;;;1.00;99.90;;;;;;5100105;28;20472;-78
2021/01/16 07:43:57;;;;;;;38.00;28.57;;;1.00;99.90;;;;;;5106363;28;21117;-74
2021/01/16 07:46:29;;;;;;;35.10;28.20;;;1.00;99.90;;;;;;5105055;28;20492;-76
2021/01/16 07:48:58;;;;;;;36.40;29.00;;;1.00;99.90;;;;;;5099053;28;20547;-75
2021/01/16 07:51:31;;;;;;;40.90;31.17;;;1.00;99.90;;;;;;5102211;28;20456;-76
2021/01/16 07:54:04;;;;;;;42.03;29.83;;;1.10;99.90;;;;;;5103093;28;20859;-78
2021/01/16 07:56:42;;;;;;;38.03;31.60;;;1.10;99.90;;;;;;5102676;28;20466;-75
2021/01/16 07:59:18;;;;;;;43.97;30.40;;;1.10;99.90;;;;;;5108110;28;20464;-76
2021/01/16 08:02:18;;;;;;;37.20;30.43;;;1.10;99.90;;;;;;5102513;28;20463;-76
2021/01/16 08:04:56;;;;;;;37.93;30.00;;;1.20;99.90;;;;;;5104140;28;20471;-75
2021/01/16 08:07:37;;;;;;;35.60;28.97;;;1.20;99.90;;;;;;5106742;28;20808;-75
2021/01/16 08:10:12;;;;;;;36.83;29.43;;;1.10;99.90;;;;;;5105453;28;20459;-77
2021/01/16 08:12:46;;;;;;;34.80;27.77;;;1.10;99.90;;;;;;5101729;28;20982;-74
2021/01/16 08:15:16;;;;;;;38.53;30.30;;;1.10;99.90;;;;;;5098569;28;20518;-74
2021/01/16 08:17:46;;;;;;;36.30;30.90;;;1.10;99.90;;;;;;5099057;28;20468;-79
2021/01/16 08:20:27;;;;;;;39.90;29.93;;;1.10;99.90;;;;;;5102828;28;20465;-78
2021/01/16 08:22:56;;;;;;;41.20;31.53;;;1.10;99.90;;;;;;5106014;28;20840;-75
2021/01/16 08:25:25;;;;;;;40.67;31.23;;;1.00;99.90;;;;;;5099096;28;20464;-76
2021/01/16 08:27:56;;;;;;;43.77;30.60;;;1.00;99.90;;;;;;5097460;28;20468;-77
2021/01/16 08:30:24;;;;;;;38.73;28.83;;;1.00;99.90;;;;;;5100570;28;20492;-75
2021/01/16 08:32:59;;;;;;;36.60;30.10;;;1.00;99.90;;;;;;5099872;28;20844;-76
2021/01/16 08:35:28;;;;;;;35.10;29.17;;;1.00;99.90;;;;;;5101737;28;20465;-74
2021/01/16 08:38:15;;;;;;;44.53;33.53;;;1.00;99.90;;;;;;5103770;27;20956;-75
2021/01/16 08:40:44;;;;;;;48.37;31.33;;;1.00;99.90;;;;;;5106129;28;20529;-75
2021/01/16 08:43:10;;;;;;;38.13;31.53;;;1.10;99.90;;;;;;5101569;28;20500;-77
2021/01/16 08:45:37;;;;;;;35.87;31.13;;;1.20;99.90;;;;;;5101201;28;20460;-74
2021/01/16 08:48:05;;;;;;;36.67;30.53;;;1.20;99.90;;;;;;5100556;28;20530;-75
2021/01/16 08:50:33;;;;;;;46.87;31.73;;;1.30;99.90;;;;;;5103379;28;20470;-74
2021/01/16 08:53:01;;;;;;;40.03;30.47;;;1.30;99.90;;;;;;5098602;28;21051;-76
2021/01/16 08:55:29;;;;;;;40.13;30.50;;;1.30;99.90;;;;;;5105002;28;20818;-76
2021/01/16 08:58:10;;;;;;;36.97;30.67;;;1.30;99.90;;;;;;5098209;28;20529;-76
2021/01/16 09:00:38;;;;;;;40.60;32.50;;;1.40;99.90;;;;;;5096574;28;20959;-74
2021/01/16 09:03:16;;;;;;;40.70;32.07;;;1.40;99.90;;;;;;5102220;28;20991;-76
2021/01/16 09:05:43;;;;;;;33.67;28.87;;;1.50;99.90;;;;;;5098471;28;20473;-77
2021/01/16 09:08:21;;;;;;;45.17;30.97;;;1.50;99.90;;;;;;5098569;28;20514;-75
2021/01/16 09:10:49;;;;;;;42.03;32.83;;;1.50;99.90;;;;;;5096875;28;20465;-74
2021/01/16 09:13:28;;;;;;;38.90;30.33;;;1.50;99.90;;;;;;5098905;28;20863;-75
2021/01/16 09:15:58;;;;;;;37.30;31.67;;;1.60;99.90;;;;;;5100082;28;20459;-76
2021/01/16 09:18:26;;;;;;;37.93;31.03;;;1.60;99.90;;;;;;5091625;28;20976;-76
2021/01/16 09:20:58;;;;;;;32.90;29.30;;;1.60;99.90;;;;;;5105565;28;20456;-75
2021/01/16 09:23:27;;;;;;;38.20;29.30;;;1.80;99.90;;;;;;5098999;28;20535;-77
2021/01/16 09:25:57;;;;;;;36.90;28.13;;;1.80;99.90;;;;;;5102106;28;20458;-74
2021/01/16 09:28:44;;;;;;;36.90;31.30;;;1.80;99.90;;;;;;5097685;28;20564;-74
2021/01/16 09:31:18;;;;;;;35.33;28.67;;;1.90;99.90;;;;;;5098961;28;20475;-73
2021/01/16 09:33:46;;;;;;;38.90;29.27;;;1.90;99.90;;;;;;5099754;28;20814;-75
2021/01/16 09:36:13;;;;;;;42.33;29.77;;;1.80;99.90;;;;;;5100551;28;20484;-75
2021/01/16 09:38:39;;;;;;;44.73;32.53;;;1.80;99.90;;;;;;5104714;27;20486;-76
2021/01/16 09:41:05;;;;;;;40.97;31.50;;;1.90;99.90;;;;;;5102035;28;20492;-76
2021/01/16 09:43:42;;;;;;;39.57;29.90;;;1.90;99.90;;;;;;5088238;28;21039;-74
2021/01/16 09:46:09;;;;;;;40.30;29.30;;;2.00;99.90;;;;;;5095368;27;20463;-77
2021/01/16 09:48:42;;;;;;;42.33;30.00;;;1.90;99.90;;;;;;5097896;28;20975;-76
2021/01/16 09:51:10;;;;;;;39.77;30.40;;;1.80;99.90;;;;;;5092971;28;20577;-75
2021/01/16 09:53:38;;;;;;;44.70;30.67;;;1.80;99.90;;;;;;5089248;28;20957;-76
2021/01/16 09:56:05;;;;;;;34.20;30.27;;;1.90;99.90;;;;;;5089673;28;20491;-78
2021/01/16 09:58:35;;;;;;;39.80;28.83;;;2.00;99.90;;;;;;5093395;28;20500;-76
2021/01/16 10:01:24;;;;;;;35.13;29.10;;;2.00;99.90;;;;;;5094968;28;20946;-74
2021/01/16 10:03:52;;;;;;;34.87;28.27;;;2.10;99.90;;;;;;5089272;28;20453;-75
2021/01/16 10:06:19;;;;;;;39.10;29.83;;;2.00;99.90;;;;;;5089898;28;20465;-76
2021/01/16 10:08:46;;;;;;;31.83;26.93;;;2.10;99.90;;;;;;5092221;28;20893;-77
2021/01/16 10:11:14;;;;;;;37.93;28.23;;;2.10;99.90;;;;;;5089038;28;20819;-74
2021/01/16 10:13:42;;;;;;;38.83;28.47;;;2.10;99.90;;;;;;5095057;28;20568;-76
2021/01/16 10:16:09;;;;;;;36.30;29.23;;;2.10;99.90;;;;;;5093980;28;20492;-77
2021/01/16 10:18:39;;;;;;;38.03;27.37;;;2.20;99.90;;;;;;5098718;28;20460;-78
2021/01/16 10:21:07;;;;;;;31.03;27.30;;;2.20;99.90;;;;;;5091037;28;20457;-78
2021/01/16 10:23:36;;;;;;;29.60;25.97;;;2.10;99.90;;;;;;5097182;28;20457;-76
2021/01/16 10:26:08;;;;;;;41.87;26.57;;;2.10;99.90;;;;;;5099506;28;20562;-77
2021/01/16 10:28:36;;;;;;;33.80;27.10;;;2.20;99.90;;;;;;5093403;28;20460;-75
2021/01/16 10:31:04;;;;;;;29.60;26.07;;;2.10;99.90;;;;;;5079275;28;20559;-77
2021/01/16 10:33:40;;;;;;;33.93;27.50;;;2.20;99.90;;;;;;5093510;28;21370;-77
2021/01/16 10:36:13;;;;;;;33.73;27.20;;;2.40;99.90;;;;;;5088557;28;20475;-77
2021/01/16 10:38:42;;;;;;;31.53;25.97;;;2.50;99.90;;;;;;5085795;28;20455;-77
2021/01/16 10:41:10;;;;;;;31.97;26.83;;;2.50;99.90;;;;;;5084373;28;20450;-74
2021/01/16 10:43:37;;;;;;;33.83;26.20;;;2.60;99.90;;;;;;5081036;28;20471;-76
2021/01/16 10:46:12;;;;;;;32.03;26.20;;;2.70;99.90;;;;;;5085381;28;20458;-74
2021/01/16 10:48:40;;;;;;;34.80;28.73;;;2.80;99.90;;;;;;5089975;28;20453;-77
2021/01/16 10:51:09;;;;;;;30.23;26.80;;;2.80;99.90;;;;;;5081281;28;20485;-76
2021/01/16 10:53:37;;;;;;;36.57;26.80;;;2.90;99.90;;;;;;5076784;28;20502;-77
2021/01/16 10:56:12;;;;;;;33.97;26.47;;;2.90;99.90;;;;;;5078032;28;20968;-76
2021/01/16 10:58:41;;;;;;;36.33;26.07;;;2.90;99.90;;;;;;5079109;28;21263;-76
2021/01/16 11:01:09;;;;;;;34.63;26.40;;;2.90;99.90;;;;;;5078670;28;20466;-74
2021/01/16 11:03:36;;;;;;;28.67;25.67;;;3.10;99.90;;;;;;5076241;28;20459;-77
2021/01/16 11:06:08;;;;;;;31.37;26.10;;;3.10;99.90;;;;;;5073577;28;20513;-75
2021/01/16 11:08:36;;;;;;;31.87;25.93;;;3.10;99.90;;;;;;5083309;28;20465;-75
2021/01/16 11:11:23;;;;;;;31.77;25.97;;;3.10;99.90;;;;;;5072397;28;20921;-75
2021/01/16 11:13:50;;;;;;;34.33;25.50;;;3.00;99.90;;;;;;5082500;28;20482;-74
2021/01/16 11:16:19;;;;;;;26.27;23.47;;;3.20;99.90;;;;;;5072597;28;21000;-77
2021/01/16 11:18:47;;;;;;;37.00;27.57;;;3.20;99.90;;;;;;5074001;28;20466;-77
2021/01/16 11:21:47;;;;;;;32.07;23.77;;;3.30;99.90;;;;;;5072289;28;20515;-74
2021/01/16 11:25:06;;;;;;;32.87;23.63;;;3.40;99.90;;;;;;5073544;28;21040;-77
2021/01/16 11:27:35;;;;;;;27.33;24.40;;;3.40;99.90;;;;;;5074777;28;20696;-75
2021/01/16 11:30:06;;;;;;;24.60;20.73;;;3.40;99.90;;;;;;5092376;28;20492;-75
2021/01/16 11:32:35;;;;;;;28.67;22.90;;;3.50;99.90;;;;;;5097965;28;20489;-76
2021/01/16 11:35:09;;;;;;;24.73;22.00;;;3.50;99.90;;;;;;5098686;28;20462;-75
2021/01/16 11:37:55;;;;;;;24.30;21.77;;;3.50;99.90;;;;;;5105028;27;20448;-76
2021/01/16 11:40:24;;;;;;;27.90;21.47;;;3.40;99.90;;;;;;5088251;28;20519;-77
2021/01/16 11:42:52;;;;;;;25.70;20.30;;;3.30;99.90;;;;;;5090245;28;20488;-76
2021/01/16 11:45:20;;;;;;;22.93;20.77;;;3.30;99.90;;;;;;5100975;28;20480;-75
2021/01/16 11:47:50;;;;;;;19.50;17.57;;;3.40;99.90;;;;;;5090182;28;20474;-76
2021/01/16 11:50:17;;;;;;;20.33;18.30;;;3.50;99.90;;;;;;5097448;28;20489;-75
2021/01/16 11:52:44;;;;;;;21.90;19.57;;;3.40;99.90;;;;;;5103530;28;20489;-77
2021/01/16 11:55:13;;;;;;;22.53;20.13;;;3.40;99.90;;;;;;5098051;28;20456;-75
2021/01/16 11:57:40;;;;;;;20.17;18.20;;;3.50;99.90;;;;;;5096678;28;20471;-74
2021/01/16 12:00:08;;;;;;;21.20;18.80;;;3.70;99.90;;;;;;5103661;28;20543;-75
2021/01/16 12:02:35;;;;;;;21.83;19.80;;;3.60;99.90;;;;;;5092922;28;20465;-75
2021/01/16 12:05:01;;;;;;;20.20;18.37;;;3.60;99.90;;;;;;5097272;27;20506;-78
2021/01/16 12:07:27;;;;;;;21.00;18.80;;;3.60;99.90;;;;;;5112903;27;20484;-75
2021/01/16 12:09:57;;;;;;;19.53;17.83;;;3.70;99.90;;;;;;5096043;27;20482;-76
2021/01/16 12:12:31;;;;;;;20.60;18.63;;;3.80;99.90;;;;;;5095652;27;20494;-74
2021/01/16 12:15:00;;;;;;;19.97;18.27;;;3.90;99.90;;;;;;5096941;28;20455;-75
2021/01/16 12:17:29;;;;;;;20.43;18.50;;;3.70;99.90;;;;;;5099178;28;20954;-74
2021/01/16 12:19:56;;;;;;;22.00;19.87;;;3.80;99.90;;;;;;5101467;27;20463;-76
2021/01/16 12:22:28;;;;;;;18.63;17.07;;;3.70;99.90;;;;;;5098925;27;20468;-76
2021/01/16 12:24:55;;;;;;;18.57;17.07;;;3.80;99.90;;;;;;5099177;27;20462;-76
2021/01/16 12:27:22;;;;;;;18.20;16.67;;;3.60;99.90;;;;;;5104368;27;20455;-75
2021/01/16 12:29:54;;;;;;;20.70;18.80;;;3.60;99.90;;;;;;5098086;27;20485;-75
2021/01/16 12:32:21;;;;;;;23.73;21.27;;;3.50;99.90;;;;;;5093423;28;20887;-75
2021/01/16 12:34:49;;;;;;;19.60;18.00;;;3.70;99.90;;;;;;5106511;27;20519;-75
2021/01/16 12:37:25;;;;;;;19.27;17.57;;;3.80;99.90;;;;;;5104714;27;20453;-77
2021/01/16 12:39:52;;;;;;;18.77;16.87;;;3.80;99.90;;;;;;5103265;27;20471;-78
2021/01/16 12:42:19;;;;;;;19.33;17.73;;;3.80;99.90;;;;;;5105560;27;20457;-77
2021/01/16 12:44:46;;;;;;;20.30;18.50;;;3.70;99.90;;;;;;5104433;27;20452;-77
2021/01/16 12:47:19;;;;;;;20.37;18.77;;;3.60;99.90;;;;;;5095308;28;20477;-75
2021/01/16 12:49:49;;;;;;;19.13;17.53;;;3.50;99.90;;;;;;5100733;27;20461;-77